sensor_id;sensor_type;location;lat;lon;timestamp;P1;durP1;ratioP1;P2;durP2;ratioP2
60016;SDS011;45869;52.698;6.210;2023-06-10T00:02:11;5.85;;;3.50;;
60016;SDS011;45869;52.698;6.210;2023-06-10T00:04:37;6.35;;;3.47;;
60016;SDS011;45869;52.698;6.210;2023-06-10T00:07:03;6.43;;;3.28;;
60016;SDS011;45869;52.698;6.210;2023-06-10T00:09:34;7.65;;;3.90;;
60016;SDS011;45869;52.698;6.210;2023-06-10T00:12:02;6.88;;;3.55;;
60016;SDS011;45869;52.698;6.210;2023-06-10T00:14:28;6.57;;;3.20;;
60016;SDS011;45869;52.698;6.210;2023-06-10T00:16:54;5.70;;;3.38;;
60016;SDS011;45869;52.698;6.210;2023-06-10T00:19:23;5.10;;;3.45;;
60016;SDS011;45869;52.698;6.210;2023-06-10T00:21:57;7.38;;;3.58;;
60016;SDS011;45869;52.698;6.210;2023-06-10T00:24:23;7.78;;;3.75;;
60016;SDS011;45869;52.698;6.210;2023-06-10T00:26:49;6.78;;;3.60;;
60016;SDS011;45869;52.698;6.210;2023-06-10T00:29:15;9.13;;;3.72;;
60016;SDS011;45869;52.698;6.210;2023-06-10T00:31:41;7.88;;;3.72;;
60016;SDS011;45869;52.698;6.210;2023-06-10T00:34:11;7.38;;;3.55;;
60016;SDS011;45869;52.698;6.210;2023-06-10T00:36:37;6.90;;;3.60;;
60016;SDS011;45869;52.698;6.210;2023-06-10T00:39:03;8.38;;;3.28;;
60016;SDS011;45869;52.698;6.210;2023-06-10T00:41:29;7.20;;;3.55;;
60016;SDS011;45869;52.698;6.210;2023-06-10T00:43:56;7.28;;;3.92;;
60016;SDS011;45869;52.698;6.210;2023-06-10T00:46:22;7.20;;;3.30;;
60016;SDS011;45869;52.698;6.210;2023-06-10T00:48:49;8.30;;;3.53;;
60016;SDS011;45869;52.698;6.210;2023-06-10T00:51:16;5.82;;;3.38;;
60016;SDS011;45869;52.698;6.210;2023-06-10T00:53:42;7.85;;;4.00;;
60016;SDS011;45869;52.698;6.210;2023-06-10T00:56:09;5.55;;;3.50;;
60016;SDS011;45869;52.698;6.210;2023-06-10T00:58:38;7.20;;;4.20;;
60016;SDS011;45869;52.698;6.210;2023-06-10T01:01:04;7.10;;;3.85;;
60016;SDS011;45869;52.698;6.210;2023-06-10T01:03:30;8.65;;;3.97;;
60016;SDS011;45869;52.698;6.210;2023-06-10T01:05:59;8.15;;;3.85;;
60016;SDS011;45869;52.698;6.210;2023-06-10T01:11:19;8.90;;;4.00;;
60016;SDS011;45869;52.698;6.210;2023-06-10T01:13:47;8.00;;;3.97;;
60016;SDS011;45869;52.698;6.210;2023-06-10T01:16:16;8.98;;;4.32;;
60016;SDS011;45869;52.698;6.210;2023-06-10T01:18:43;7.57;;;3.67;;
60016;SDS011;45869;52.698;6.210;2023-06-10T01:21:12;7.10;;;3.83;;
60016;SDS011;45869;52.698;6.210;2023-06-10T01:23:38;7.55;;;4.00;;
60016;SDS011;45869;52.698;6.210;2023-06-10T01:26:06;7.43;;;4.15;;
60016;SDS011;45869;52.698;6.210;2023-06-10T01:28:51;8.75;;;4.13;;
60016;SDS011;45869;52.698;6.210;2023-06-10T01:34:07;6.90;;;4.10;;
60016;SDS011;45869;52.698;6.210;2023-06-10T01:36:34;10.75;;;3.75;;
60016;SDS011;45869;52.698;6.210;2023-06-10T01:39:01;7.65;;;3.92;;
60016;SDS011;45869;52.698;6.210;2023-06-10T01:41:28;6.95;;;3.78;;
60016;SDS011;45869;52.698;6.210;2023-06-10T01:43:54;5.32;;;3.78;;
60016;SDS011;45869;52.698;6.210;2023-06-10T01:46:20;8.63;;;4.47;;
60016;SDS011;45869;52.698;6.210;2023-06-10T01:48:47;7.97;;;4.18;;
60016;SDS011;45869;52.698;6.210;2023-06-10T01:51:13;7.38;;;4.20;;
60016;SDS011;45869;52.698;6.210;2023-06-10T01:53:39;7.57;;;4.40;;
60016;SDS011;45869;52.698;6.210;2023-06-10T01:56:05;8.63;;;4.50;;
60016;SDS011;45869;52.698;6.210;2023-06-10T01:58:31;9.57;;;4.55;;
60016;SDS011;45869;52.698;6.210;2023-06-10T02:00:57;7.30;;;4.00;;
60016;SDS011;45869;52.698;6.210;2023-06-10T02:03:26;8.20;;;4.60;;
60016;SDS011;45869;52.698;6.210;2023-06-10T02:05:52;9.25;;;4.30;;
60016;SDS011;45869;52.698;6.210;2023-06-10T02:08:18;8.07;;;4.60;;
60016;SDS011;45869;52.698;6.210;2023-06-10T02:10:44;7.60;;;4.22;;
60016;SDS011;45869;52.698;6.210;2023-06-10T02:13:10;7.78;;;4.38;;
60016;SDS011;45869;52.698;6.210;2023-06-10T02:15:36;6.55;;;4.30;;
60016;SDS011;45869;52.698;6.210;2023-06-10T02:18:02;9.32;;;4.80;;
60016;SDS011;45869;52.698;6.210;2023-06-10T02:20:28;9.00;;;4.65;;
60016;SDS011;45869;52.698;6.210;2023-06-10T02:23:03;7.22;;;4.53;;
60016;SDS011;45869;52.698;6.210;2023-06-10T02:25:30;6.63;;;3.90;;
60016;SDS011;45869;52.698;6.210;2023-06-10T02:27:56;7.88;;;4.55;;
60016;SDS011;45869;52.698;6.210;2023-06-10T02:30:22;8.05;;;4.47;;
60016;SDS011;45869;52.698;6.210;2023-06-10T02:32:48;7.90;;;4.35;;
60016;SDS011;45869;52.698;6.210;2023-06-10T02:35:15;9.15;;;4.70;;
60016;SDS011;45869;52.698;6.210;2023-06-10T02:37:42;9.43;;;4.78;;
60016;SDS011;45869;52.698;6.210;2023-06-10T02:40:08;7.22;;;4.28;;
60016;SDS011;45869;52.698;6.210;2023-06-10T02:42:35;8.80;;;4.65;;
60016;SDS011;45869;52.698;6.210;2023-06-10T02:45:01;9.75;;;5.20;;
60016;SDS011;45869;52.698;6.210;2023-06-10T02:47:27;5.90;;;4.30;;
60016;SDS011;45869;52.698;6.210;2023-06-10T02:49:53;8.80;;;4.85;;
60016;SDS011;45869;52.698;6.210;2023-06-10T02:52:20;8.48;;;4.85;;
60016;SDS011;45869;52.698;6.210;2023-06-10T02:54:46;6.78;;;4.50;;
60016;SDS011;45869;52.698;6.210;2023-06-10T02:57:12;7.82;;;4.50;;
60016;SDS011;45869;52.698;6.210;2023-06-10T02:59:39;9.52;;;5.38;;
60016;SDS011;45869;52.698;6.210;2023-06-10T03:02:06;7.72;;;4.68;;
60016;SDS011;45869;52.698;6.210;2023-06-10T03:04:32;9.35;;;5.22;;
60016;SDS011;45869;52.698;6.210;2023-06-10T03:06:58;8.75;;;4.80;;
60016;SDS011;45869;52.698;6.210;2023-06-10T03:09:28;9.32;;;5.00;;
60016;SDS011;45869;52.698;6.210;2023-06-10T03:11:54;10.60;;;5.22;;
60016;SDS011;45869;52.698;6.210;2023-06-10T03:14:20;8.52;;;5.30;;
60016;SDS011;45869;52.698;6.210;2023-06-10T03:16:46;10.77;;;4.88;;
60016;SDS011;45869;52.698;6.210;2023-06-10T03:19:13;7.95;;;4.88;;
60016;SDS011;45869;52.698;6.210;2023-06-10T03:21:39;8.10;;;5.57;;
60016;SDS011;45869;52.698;6.210;2023-06-10T03:24:06;8.02;;;5.50;;
60016;SDS011;45869;52.698;6.210;2023-06-10T03:26:32;11.75;;;5.32;;
60016;SDS011;45869;52.698;6.210;2023-06-10T03:28:58;7.85;;;4.82;;
60016;SDS011;45869;52.698;6.210;2023-06-10T03:31:24;9.25;;;5.07;;
60016;SDS011;45869;52.698;6.210;2023-06-10T03:33:50;9.27;;;4.68;;
60016;SDS011;45869;52.698;6.210;2023-06-10T03:36:16;12.60;;;5.35;;
60016;SDS011;45869;52.698;6.210;2023-06-10T03:38:42;9.60;;;5.15;;
60016;SDS011;45869;52.698;6.210;2023-06-10T03:41:08;10.30;;;5.43;;
60016;SDS011;45869;52.698;6.210;2023-06-10T03:43:37;11.35;;;5.43;;
60016;SDS011;45869;52.698;6.210;2023-06-10T03:46:07;8.77;;;4.82;;
60016;SDS011;45869;52.698;6.210;2023-06-10T03:48:33;7.10;;;4.25;;
60016;SDS011;45869;52.698;6.210;2023-06-10T03:50:59;8.52;;;4.85;;
60016;SDS011;45869;52.698;6.210;2023-06-10T03:53:25;8.55;;;4.82;;
60016;SDS011;45869;52.698;6.210;2023-06-10T03:55:51;8.77;;;5.20;;
60016;SDS011;45869;52.698;6.210;2023-06-10T03:58:17;10.13;;;4.80;;
60016;SDS011;45869;52.698;6.210;2023-06-10T04:00:43;8.65;;;4.47;;
60016;SDS011;45869;52.698;6.210;2023-06-10T04:03:10;8.32;;;4.75;;
60016;SDS011;45869;52.698;6.210;2023-06-10T04:05:39;6.45;;;4.43;;
60016;SDS011;45869;52.698;6.210;2023-06-10T04:08:06;8.90;;;4.65;;
60016;SDS011;45869;52.698;6.210;2023-06-10T04:10:32;7.22;;;4.82;;
60016;SDS011;45869;52.698;6.210;2023-06-10T04:12:58;8.85;;;4.70;;
60016;SDS011;45869;52.698;6.210;2023-06-10T04:15:24;8.30;;;4.60;;
60016;SDS011;45869;52.698;6.210;2023-06-10T04:17:51;8.40;;;4.60;;
60016;SDS011;45869;52.698;6.210;2023-06-10T04:20:17;12.15;;;4.32;;
60016;SDS011;45869;52.698;6.210;2023-06-10T04:22:43;8.48;;;4.57;;
60016;SDS011;45869;52.698;6.210;2023-06-10T04:25:09;8.70;;;4.55;;
60016;SDS011;45869;52.698;6.210;2023-06-10T04:27:35;8.45;;;4.90;;
60016;SDS011;45869;52.698;6.210;2023-06-10T04:30:02;7.25;;;4.72;;
60016;SDS011;45869;52.698;6.210;2023-06-10T04:32:29;9.98;;;3.97;;
60016;SDS011;45869;52.698;6.210;2023-06-10T04:34:55;8.65;;;4.60;;
60016;SDS011;45869;52.698;6.210;2023-06-10T04:37:21;7.28;;;4.20;;
60016;SDS011;45869;52.698;6.210;2023-06-10T04:39:47;8.15;;;3.80;;
60016;SDS011;45869;52.698;6.210;2023-06-10T04:42:13;7.15;;;3.55;;
60016;SDS011;45869;52.698;6.210;2023-06-10T04:44:40;8.48;;;4.32;;
60016;SDS011;45869;52.698;6.210;2023-06-10T04:47:06;10.00;;;3.95;;
60016;SDS011;45869;52.698;6.210;2023-06-10T04:49:35;6.68;;;4.18;;
60016;SDS011;45869;52.698;6.210;2023-06-10T04:52:01;8.73;;;4.20;;
60016;SDS011;45869;52.698;6.210;2023-06-10T04:54:29;10.15;;;4.10;;
60016;SDS011;45869;52.698;6.210;2023-06-10T04:56:55;6.95;;;3.70;;
60016;SDS011;45869;52.698;6.210;2023-06-10T04:59:21;6.65;;;3.72;;
60016;SDS011;45869;52.698;6.210;2023-06-10T05:01:47;7.13;;;4.15;;
60016;SDS011;45869;52.698;6.210;2023-06-10T05:04:13;6.30;;;3.88;;
60016;SDS011;45869;52.698;6.210;2023-06-10T05:06:39;9.48;;;4.03;;
60016;SDS011;45869;52.698;6.210;2023-06-10T05:09:05;8.88;;;3.75;;
60016;SDS011;45869;52.698;6.210;2023-06-10T05:11:31;7.60;;;3.80;;
60016;SDS011;45869;52.698;6.210;2023-06-10T05:13:57;6.55;;;3.30;;
60016;SDS011;45869;52.698;6.210;2023-06-10T05:16:23;6.80;;;3.72;;
60016;SDS011;45869;52.698;6.210;2023-06-10T05:18:49;5.97;;;3.70;;
60016;SDS011;45869;52.698;6.210;2023-06-10T05:21:17;6.88;;;3.72;;
60016;SDS011;45869;52.698;6.210;2023-06-10T05:23:43;8.23;;;3.95;;
60016;SDS011;45869;52.698;6.210;2023-06-10T05:26:09;7.80;;;4.00;;
60016;SDS011;45869;52.698;6.210;2023-06-10T05:28:35;8.95;;;3.58;;
60016;SDS011;45869;52.698;6.210;2023-06-10T05:31:02;7.10;;;3.70;;
60016;SDS011;45869;52.698;6.210;2023-06-10T05:33:28;5.45;;;3.40;;
60016;SDS011;45869;52.698;6.210;2023-06-10T05:35:54;7.85;;;3.65;;
60016;SDS011;45869;52.698;6.210;2023-06-10T05:38:20;6.85;;;3.63;;
60016;SDS011;45869;52.698;6.210;2023-06-10T05:40:46;11.70;;;3.72;;
60016;SDS011;45869;52.698;6.210;2023-06-10T05:43:12;7.93;;;3.53;;
60016;SDS011;45869;52.698;6.210;2023-06-10T05:45:42;7.47;;;3.50;;
60016;SDS011;45869;52.698;6.210;2023-06-10T05:48:08;6.53;;;3.75;;
60016;SDS011;45869;52.698;6.210;2023-06-10T05:50:34;6.53;;;3.50;;
60016;SDS011;45869;52.698;6.210;2023-06-10T05:53:04;8.02;;;3.90;;
60016;SDS011;45869;52.698;6.210;2023-06-10T05:55:40;9.07;;;3.53;;
60016;SDS011;45869;52.698;6.210;2023-06-10T05:58:06;8.52;;;3.35;;
60016;SDS011;45869;52.698;6.210;2023-06-10T06:00:32;10.02;;;3.72;;
60016;SDS011;45869;52.698;6.210;2023-06-10T06:02:58;8.38;;;3.85;;
60016;SDS011;45869;52.698;6.210;2023-06-10T06:05:27;7.38;;;4.00;;
60016;SDS011;45869;52.698;6.210;2023-06-10T06:07:53;12.38;;;3.50;;
60016;SDS011;45869;52.698;6.210;2023-06-10T06:10:19;6.47;;;3.53;;
60016;SDS011;45869;52.698;6.210;2023-06-10T06:12:45;9.13;;;3.60;;
60016;SDS011;45869;52.698;6.210;2023-06-10T06:15:11;9.05;;;3.63;;
60016;SDS011;45869;52.698;6.210;2023-06-10T06:17:37;8.32;;;3.72;;
60016;SDS011;45869;52.698;6.210;2023-06-10T06:20:03;7.70;;;3.58;;
60016;SDS011;45869;52.698;6.210;2023-06-10T06:22:29;5.95;;;3.40;;
60016;SDS011;45869;52.698;6.210;2023-06-10T06:24:55;7.60;;;3.50;;
60016;SDS011;45869;52.698;6.210;2023-06-10T06:27:21;6.72;;;3.22;;
60016;SDS011;45869;52.698;6.210;2023-06-10T06:29:47;6.50;;;3.40;;
60016;SDS011;45869;52.698;6.210;2023-06-10T06:32:13;6.82;;;3.15;;
60016;SDS011;45869;52.698;6.210;2023-06-10T06:34:40;6.30;;;3.38;;
60016;SDS011;45869;52.698;6.210;2023-06-10T06:37:06;7.88;;;3.53;;
60016;SDS011;45869;52.698;6.210;2023-06-10T06:39:32;6.30;;;3.40;;
60016;SDS011;45869;52.698;6.210;2023-06-10T06:41:58;5.80;;;3.33;;
60016;SDS011;45869;52.698;6.210;2023-06-10T06:44:24;6.22;;;3.90;;
60016;SDS011;45869;52.698;6.210;2023-06-10T06:46:50;7.95;;;3.47;;
60016;SDS011;45869;52.698;6.210;2023-06-10T06:49:19;7.40;;;3.50;;
60016;SDS011;45869;52.698;6.210;2023-06-10T06:51:48;9.23;;;3.60;;
60016;SDS011;45869;52.698;6.210;2023-06-10T06:54:14;6.72;;;3.28;;
60016;SDS011;45869;52.698;6.210;2023-06-10T06:56:40;7.32;;;3.50;;
60016;SDS011;45869;52.698;6.210;2023-06-10T06:59:06;7.43;;;3.03;;
60016;SDS011;45869;52.698;6.210;2023-06-10T07:01:33;6.72;;;3.53;;
60016;SDS011;45869;52.698;6.210;2023-06-10T07:03:59;6.28;;;3.10;;
60016;SDS011;45869;52.698;6.210;2023-06-10T07:06:25;6.38;;;2.75;;
60016;SDS011;45869;52.698;6.210;2023-06-10T07:08:51;8.27;;;3.58;;
60016;SDS011;45869;52.698;6.210;2023-06-10T07:11:20;8.10;;;3.38;;
60016;SDS011;45869;52.698;6.210;2023-06-10T07:13:47;6.65;;;2.90;;
60016;SDS011;45869;52.698;6.210;2023-06-10T07:16:13;5.50;;;3.30;;
60016;SDS011;45869;52.698;6.210;2023-06-10T07:18:39;6.78;;;3.15;;
60016;SDS011;45869;52.698;6.210;2023-06-10T07:21:05;7.60;;;3.10;;
60016;SDS011;45869;52.698;6.210;2023-06-10T07:23:31;5.78;;;2.97;;
60016;SDS011;45869;52.698;6.210;2023-06-10T07:25:57;6.05;;;2.90;;
60016;SDS011;45869;52.698;6.210;2023-06-10T07:28:26;6.53;;;3.00;;
60016;SDS011;45869;52.698;6.210;2023-06-10T07:30:52;6.45;;;2.95;;
60016;SDS011;45869;52.698;6.210;2023-06-10T07:33:18;8.90;;;3.30;;
60016;SDS011;45869;52.698;6.210;2023-06-10T07:35:44;7.85;;;3.10;;
60016;SDS011;45869;52.698;6.210;2023-06-10T07:38:10;7.28;;;2.88;;
60016;SDS011;45869;52.698;6.210;2023-06-10T07:40:36;6.15;;;2.92;;
60016;SDS011;45869;52.698;6.210;2023-06-10T07:43:02;6.72;;;3.10;;
60016;SDS011;45869;52.698;6.210;2023-06-10T07:45:28;6.40;;;3.03;;
60016;SDS011;45869;52.698;6.210;2023-06-10T07:47:58;6.53;;;2.65;;
60016;SDS011;45869;52.698;6.210;2023-06-10T07:50:24;8.52;;;3.20;;
60016;SDS011;45869;52.698;6.210;2023-06-10T07:52:50;6.05;;;2.97;;
60016;SDS011;45869;52.698;6.210;2023-06-10T07:55:16;5.80;;;2.80;;
60016;SDS011;45869;52.698;6.210;2023-06-10T07:57:42;5.47;;;3.03;;
60016;SDS011;45869;52.698;6.210;2023-06-10T08:00:08;8.35;;;3.28;;
60016;SDS011;45869;52.698;6.210;2023-06-10T08:02:34;5.72;;;3.10;;
60016;SDS011;45869;52.698;6.210;2023-06-10T08:05:00;6.55;;;3.22;;
60016;SDS011;45869;52.698;6.210;2023-06-10T08:07:27;6.20;;;2.83;;
60016;SDS011;45869;52.698;6.210;2023-06-10T08:09:53;6.97;;;3.00;;
60016;SDS011;45869;52.698;6.210;2023-06-10T08:12:19;7.28;;;3.20;;
60016;SDS011;45869;52.698;6.210;2023-06-10T08:14:45;6.03;;;3.00;;
60016;SDS011;45869;52.698;6.210;2023-06-10T08:17:11;7.80;;;2.70;;
60016;SDS011;45869;52.698;6.210;2023-06-10T08:19:37;5.90;;;2.72;;
60016;SDS011;45869;52.698;6.210;2023-06-10T08:22:03;6.25;;;2.67;;
60016;SDS011;45869;52.698;6.210;2023-06-10T08:24:29;7.18;;;2.55;;
60016;SDS011;45869;52.698;6.210;2023-06-10T08:26:59;9.00;;;2.67;;
60016;SDS011;45869;52.698;6.210;2023-06-10T08:29:25;7.13;;;2.63;;
60016;SDS011;45869;52.698;6.210;2023-06-10T08:31:51;5.63;;;2.63;;
60016;SDS011;45869;52.698;6.210;2023-06-10T08:34:17;5.65;;;2.92;;
60016;SDS011;45869;52.698;6.210;2023-06-10T08:36:43;7.47;;;2.60;;
60016;SDS011;45869;52.698;6.210;2023-06-10T08:39:10;5.93;;;2.50;;
60016;SDS011;45869;52.698;6.210;2023-06-10T08:41:41;5.13;;;2.50;;
60016;SDS011;45869;52.698;6.210;2023-06-10T08:44:10;4.45;;;2.20;;
60016;SDS011;45869;52.698;6.210;2023-06-10T08:46:38;4.68;;;2.25;;
60016;SDS011;45869;52.698;6.210;2023-06-10T08:49:05;5.97;;;2.40;;
60016;SDS011;45869;52.698;6.210;2023-06-10T08:51:55;4.47;;;2.25;;
60016;SDS011;45869;52.698;6.210;2023-06-10T08:54:20;5.35;;;2.38;;
60016;SDS011;45869;52.698;6.210;2023-06-10T08:56:48;5.43;;;2.75;;
60016;SDS011;45869;52.698;6.210;2023-06-10T08:59:16;6.65;;;2.45;;
60016;SDS011;45869;52.698;6.210;2023-06-10T09:01:43;6.95;;;2.70;;
60016;SDS011;45869;52.698;6.210;2023-06-10T09:04:09;6.70;;;2.47;;
60016;SDS011;45869;52.698;6.210;2023-06-10T09:06:36;5.65;;;2.20;;
60016;SDS011;45869;52.698;6.210;2023-06-10T09:09:03;4.40;;;2.25;;
60016;SDS011;45869;52.698;6.210;2023-06-10T09:11:31;4.82;;;2.38;;
60016;SDS011;45869;52.698;6.210;2023-06-10T09:13:57;6.93;;;2.40;;
60016;SDS011;45869;52.698;6.210;2023-06-10T09:16:24;6.32;;;2.35;;
60016;SDS011;45869;52.698;6.210;2023-06-10T09:18:50;5.47;;;2.38;;
60016;SDS011;45869;52.698;6.210;2023-06-10T09:21:21;4.03;;;2.20;;
60016;SDS011;45869;52.698;6.210;2023-06-10T09:23:47;3.95;;;2.03;;
60016;SDS011;45869;52.698;6.210;2023-06-10T09:26:14;4.68;;;2.28;;
60016;SDS011;45869;52.698;6.210;2023-06-10T09:28:41;5.47;;;2.65;;
60016;SDS011;45869;52.698;6.210;2023-06-10T09:31:10;4.53;;;2.70;;
60016;SDS011;45869;52.698;6.210;2023-06-10T09:33:37;5.32;;;2.47;;
60016;SDS011;45869;52.698;6.210;2023-06-10T09:36:06;6.40;;;2.72;;
60016;SDS011;45869;52.698;6.210;2023-06-10T09:38:37;6.55;;;2.05;;
60016;SDS011;45869;52.698;6.210;2023-06-10T09:41:09;6.47;;;2.72;;
60016;SDS011;45869;52.698;6.210;2023-06-10T09:43:39;7.90;;;2.85;;
60016;SDS011;45869;52.698;6.210;2023-06-10T09:46:05;5.45;;;2.28;;
60016;SDS011;45869;52.698;6.210;2023-06-10T09:48:35;6.82;;;2.58;;
60016;SDS011;45869;52.698;6.210;2023-06-10T09:51:09;8.25;;;2.70;;
60016;SDS011;45869;52.698;6.210;2023-06-10T09:53:39;4.60;;;2.22;;
60016;SDS011;45869;52.698;6.210;2023-06-10T09:56:05;4.80;;;2.70;;
60016;SDS011;45869;52.698;6.210;2023-06-10T09:58:35;7.65;;;2.85;;
60016;SDS011;45869;52.698;6.210;2023-06-10T10:01:04;7.15;;;2.63;;
60016;SDS011;45869;52.698;6.210;2023-06-10T10:03:30;7.63;;;3.28;;
60016;SDS011;45869;52.698;6.210;2023-06-10T10:05:59;6.40;;;2.78;;
60016;SDS011;45869;52.698;6.210;2023-06-10T10:08:29;7.32;;;2.70;;
60016;SDS011;45869;52.698;6.210;2023-06-10T10:10:56;5.03;;;3.00;;
60016;SDS011;45869;52.698;6.210;2023-06-10T10:13:23;6.75;;;2.67;;
60016;SDS011;45869;52.698;6.210;2023-06-10T10:15:49;4.18;;;2.65;;
60016;SDS011;45869;52.698;6.210;2023-06-10T10:18:16;8.23;;;2.95;;
60016;SDS011;45869;52.698;6.210;2023-06-10T10:20:47;5.18;;;2.70;;
60016;SDS011;45869;52.698;6.210;2023-06-10T10:23:17;6.50;;;2.90;;
60016;SDS011;45869;52.698;6.210;2023-06-10T10:25:44;5.85;;;2.80;;
60016;SDS011;45869;52.698;6.210;2023-06-10T10:28:12;5.05;;;2.88;;
60016;SDS011;45869;52.698;6.210;2023-06-10T10:30:42;5.10;;;2.55;;
60016;SDS011;45869;52.698;6.210;2023-06-10T10:35:53;10.02;;;3.15;;
60016;SDS011;45869;52.698;6.210;2023-06-10T10:38:21;7.15;;;2.53;;
60016;SDS011;45869;52.698;6.210;2023-06-10T10:40:47;5.03;;;2.70;;
60016;SDS011;45869;52.698;6.210;2023-06-10T10:43:16;6.85;;;2.78;;
60016;SDS011;45869;52.698;6.210;2023-06-10T10:45:58;6.38;;;2.67;;
60016;SDS011;45869;52.698;6.210;2023-06-10T10:48:25;4.28;;;2.45;;
60016;SDS011;45869;52.698;6.210;2023-06-10T10:51:03;5.18;;;2.70;;
60016;SDS011;45869;52.698;6.210;2023-06-10T10:53:29;6.97;;;2.90;;
60016;SDS011;45869;52.698;6.210;2023-06-10T10:56:14;6.57;;;2.72;;
60016;SDS011;45869;52.698;6.210;2023-06-10T10:59:01;5.82;;;2.80;;
60016;SDS011;45869;52.698;6.210;2023-06-10T11:01:43;5.50;;;2.58;;
60016;SDS011;45869;52.698;6.210;2023-06-10T11:04:11;8.98;;;2.63;;
60016;SDS011;45869;52.698;6.210;2023-06-10T11:06:37;4.97;;;2.60;;
60016;SDS011;45869;52.698;6.210;2023-06-10T11:11:49;6.38;;;2.80;;
60016;SDS011;45869;52.698;6.210;2023-06-10T11:14:30;5.78;;;2.80;;
60016;SDS011;45869;52.698;6.210;2023-06-10T11:16:58;5.72;;;2.70;;
60016;SDS011;45869;52.698;6.210;2023-06-10T11:19:37;4.38;;;2.47;;
60016;SDS011;45869;52.698;6.210;2023-06-10T11:22:15;6.88;;;2.65;;
60016;SDS011;45869;52.698;6.210;2023-06-10T11:24:41;4.28;;;2.50;;
60016;SDS011;45869;52.698;6.210;2023-06-10T11:27:17;4.50;;;2.58;;
60016;SDS011;45869;52.698;6.210;2023-06-10T11:32:38;6.47;;;2.53;;
60016;SDS011;45869;52.698;6.210;2023-06-10T11:35:04;4.13;;;2.47;;
60016;SDS011;45869;52.698;6.210;2023-06-10T11:37:31;4.22;;;2.30;;
60016;SDS011;45869;52.698;6.210;2023-06-10T11:39:57;6.47;;;2.30;;
60016;SDS011;45869;52.698;6.210;2023-06-10T11:42:24;5.38;;;2.25;;
60016;SDS011;45869;52.698;6.210;2023-06-10T11:44:50;4.75;;;2.40;;
60016;SDS011;45869;52.698;6.210;2023-06-10T11:47:17;5.47;;;2.58;;
60016;SDS011;45869;52.698;6.210;2023-06-10T11:49:43;4.03;;;2.28;;
60016;SDS011;45869;52.698;6.210;2023-06-10T11:52:10;4.72;;;2.55;;
60016;SDS011;45869;52.698;6.210;2023-06-10T11:54:36;4.80;;;2.53;;
60016;SDS011;45869;52.698;6.210;2023-06-10T11:57:06;4.97;;;2.40;;
60016;SDS011;45869;52.698;6.210;2023-06-10T11:59:33;4.63;;;2.30;;
60016;SDS011;45869;52.698;6.210;2023-06-10T12:01:59;4.60;;;2.58;;
60016;SDS011;45869;52.698;6.210;2023-06-10T12:04:26;4.55;;;2.30;;
60016;SDS011;45869;52.698;6.210;2023-06-10T12:06:52;4.20;;;2.05;;
60016;SDS011;45869;52.698;6.210;2023-06-10T12:09:26;3.40;;;1.90;;
60016;SDS011;45869;52.698;6.210;2023-06-10T12:11:59;4.35;;;2.25;;
60016;SDS011;45869;52.698;6.210;2023-06-10T12:17:12;4.57;;;2.10;;
60016;SDS011;45869;52.698;6.210;2023-06-10T12:19:38;3.28;;;2.20;;
60016;SDS011;45869;52.698;6.210;2023-06-10T12:22:04;4.85;;;2.00;;
60016;SDS011;45869;52.698;6.210;2023-06-10T12:24:33;5.25;;;2.42;;
60016;SDS011;45869;52.698;6.210;2023-06-10T12:27:12;3.20;;;2.05;;
60016;SDS011;45869;52.698;6.210;2023-06-10T12:29:38;4.07;;;1.98;;
60016;SDS011;45869;52.698;6.210;2023-06-10T12:32:05;4.15;;;2.10;;
60016;SDS011;45869;52.698;6.210;2023-06-10T12:34:33;4.38;;;2.10;;
60016;SDS011;45869;52.698;6.210;2023-06-10T12:37:03;4.25;;;2.08;;
60016;SDS011;45869;52.698;6.210;2023-06-10T12:39:33;4.28;;;2.00;;
60016;SDS011;45869;52.698;6.210;2023-06-10T12:41:59;3.20;;;1.90;;
60016;SDS011;45869;52.698;6.210;2023-06-10T12:44:30;5.70;;;2.30;;
60016;SDS011;45869;52.698;6.210;2023-06-10T12:46:56;7.47;;;2.15;;
60016;SDS011;45869;52.698;6.210;2023-06-10T12:49:22;3.85;;;1.80;;
60016;SDS011;45869;52.698;6.210;2023-06-10T12:51:48;3.83;;;1.90;;
60016;SDS011;45869;52.698;6.210;2023-06-10T12:54:14;3.20;;;1.63;;
60016;SDS011;45869;52.698;6.210;2023-06-10T12:56:40;5.35;;;1.88;;
60016;SDS011;45869;52.698;6.210;2023-06-10T12:59:06;4.50;;;2.10;;
60016;SDS011;45869;52.698;6.210;2023-06-10T13:01:32;4.03;;;1.52;;
60016;SDS011;45869;52.698;6.210;2023-06-10T13:03:58;4.15;;;1.40;;
60016;SDS011;45869;52.698;6.210;2023-06-10T13:06:27;3.85;;;1.70;;
60016;SDS011;45869;52.698;6.210;2023-06-10T13:08:53;3.13;;;1.73;;
60016;SDS011;45869;52.698;6.210;2023-06-10T13:11:19;5.22;;;1.75;;
60016;SDS011;45869;52.698;6.210;2023-06-10T13:13:48;4.40;;;1.60;;
60016;SDS011;45869;52.698;6.210;2023-06-10T13:16:14;3.30;;;1.77;;
60016;SDS011;45869;52.698;6.210;2023-06-10T13:18:40;3.47;;;1.80;;
60016;SDS011;45869;52.698;6.210;2023-06-10T13:21:06;3.17;;;1.75;;
60016;SDS011;45869;52.698;6.210;2023-06-10T13:23:38;3.35;;;1.40;;
60016;SDS011;45869;52.698;6.210;2023-06-10T13:26:04;3.50;;;1.70;;
60016;SDS011;45869;52.698;6.210;2023-06-10T13:28:30;3.78;;;1.58;;
60016;SDS011;45869;52.698;6.210;2023-06-10T13:31:00;6.50;;;1.80;;
60016;SDS011;45869;52.698;6.210;2023-06-10T13:33:28;2.28;;;1.42;;
60016;SDS011;45869;52.698;6.210;2023-06-10T13:35:54;3.67;;;1.60;;
60016;SDS011;45869;52.698;6.210;2023-06-10T13:38:23;5.50;;;1.90;;
60016;SDS011;45869;52.698;6.210;2023-06-10T13:40:49;2.90;;;1.67;;
60016;SDS011;45869;52.698;6.210;2023-06-10T13:43:16;3.17;;;1.50;;
60016;SDS011;45869;52.698;6.210;2023-06-10T13:45:42;3.13;;;1.30;;
60016;SDS011;45869;52.698;6.210;2023-06-10T13:48:11;3.58;;;1.35;;
60016;SDS011;45869;52.698;6.210;2023-06-10T13:50:37;2.65;;;1.45;;
60016;SDS011;45869;52.698;6.210;2023-06-10T13:53:07;3.83;;;1.70;;
60016;SDS011;45869;52.698;6.210;2023-06-10T13:55:33;2.65;;;1.52;;
60016;SDS011;45869;52.698;6.210;2023-06-10T13:57:59;5.07;;;1.52;;
60016;SDS011;45869;52.698;6.210;2023-06-10T14:00:25;2.90;;;1.23;;
60016;SDS011;45869;52.698;6.210;2023-06-10T14:02:52;2.83;;;1.70;;
60016;SDS011;45869;52.698;6.210;2023-06-10T14:05:18;3.40;;;1.30;;
60016;SDS011;45869;52.698;6.210;2023-06-10T14:07:44;3.58;;;1.63;;
60016;SDS011;45869;52.698;6.210;2023-06-10T14:10:10;4.53;;;1.63;;
60016;SDS011;45869;52.698;6.210;2023-06-10T14:12:36;2.97;;;1.45;;
60016;SDS011;45869;52.698;6.210;2023-06-10T14:15:02;3.05;;;1.50;;
60016;SDS011;45869;52.698;6.210;2023-06-10T14:17:29;4.95;;;1.90;;
60016;SDS011;45869;52.698;6.210;2023-06-10T14:19:55;3.45;;;1.58;;
60016;SDS011;45869;52.698;6.210;2023-06-10T14:22:21;2.90;;;1.08;;
60016;SDS011;45869;52.698;6.210;2023-06-10T14:24:47;3.53;;;1.40;;
60016;SDS011;45869;52.698;6.210;2023-06-10T14:27:13;2.05;;;1.30;;
60016;SDS011;45869;52.698;6.210;2023-06-10T14:29:39;2.55;;;1.10;;
60016;SDS011;45869;52.698;6.210;2023-06-10T14:32:05;3.65;;;1.40;;
60016;SDS011;45869;52.698;6.210;2023-06-10T14:34:32;2.75;;;1.40;;
60016;SDS011;45869;52.698;6.210;2023-06-10T14:37:01;4.68;;;1.70;;
60016;SDS011;45869;52.698;6.210;2023-06-10T14:39:32;3.97;;;1.20;;
60016;SDS011;45869;52.698;6.210;2023-06-10T14:41:58;4.80;;;1.38;;
60016;SDS011;45869;52.698;6.210;2023-06-10T14:44:24;1.92;;;1.17;;
60016;SDS011;45869;52.698;6.210;2023-06-10T14:46:53;5.05;;;1.52;;
60016;SDS011;45869;52.698;6.210;2023-06-10T14:49:19;5.28;;;1.75;;
60016;SDS011;45869;52.698;6.210;2023-06-10T14:51:45;2.53;;;1.48;;
60016;SDS011;45869;52.698;6.210;2023-06-10T14:54:13;4.07;;;1.35;;
60016;SDS011;45869;52.698;6.210;2023-06-10T14:56:39;3.67;;;1.60;;
60016;SDS011;45869;52.698;6.210;2023-06-10T14:59:05;3.92;;;1.73;;
60016;SDS011;45869;52.698;6.210;2023-06-10T15:01:31;3.25;;;1.65;;
60016;SDS011;45869;52.698;6.210;2023-06-10T15:03:57;3.97;;;1.42;;
60016;SDS011;45869;52.698;6.210;2023-06-10T15:06:23;3.03;;;1.70;;